createdAt,value
2022-12-19T00:03:22.725Z,79.67
2022-12-19T00:08:25.712Z,71.80
2022-12-19T00:13:31.153Z,74.77
2022-12-19T00:18:37.446Z,73.63
2022-12-19T00:23:40.337Z,71.67
2022-12-19T00:28:46.108Z,69.77
2022-12-19T00:33:50.754Z,71.20
2022-12-19T00:38:55.206Z,74.93
2022-12-19T00:44:02.337Z,63.80
2022-12-19T00:49:07.845Z,84.63
2022-12-19T00:54:11.829Z,77.33
2022-12-19T00:59:18.068Z,74.20
2022-12-19T01:04:30.381Z,75.47
2022-12-19T01:09:36.279Z,66.77
2022-12-19T01:14:40.590Z,70.17
2022-12-19T01:19:44.795Z,73.20
2022-12-19T01:24:48.734Z,75.20
2022-12-19T01:29:53.223Z,63.90
2022-12-19T01:34:56.231Z,73.93
2022-12-19T01:39:59.101Z,80.40
2022-12-19T01:45:33.846Z,76.43
2022-12-19T01:50:41.817Z,68.40
2022-12-19T01:55:57.034Z,65.00
2022-12-19T02:01:01.338Z,64.40
2022-12-19T02:06:06.395Z,73.87
2022-12-19T02:11:09.910Z,72.90
2022-12-19T02:16:25.968Z,74.87
2022-12-19T02:21:46.015Z,70.63
2022-12-19T02:27:07.372Z,66.70
2022-12-19T02:32:19.221Z,68.23
2022-12-19T02:37:32.347Z,67.93
2022-12-19T02:42:44.656Z,72.67
2022-12-19T02:47:49.911Z,70.17
2022-12-19T02:52:52.924Z,71.93
2022-12-19T02:58:37.617Z,72.37
2022-12-19T03:03:54.364Z,62.70
2022-12-19T03:09:04.316Z,70.30
2022-12-19T03:14:10.787Z,78.23
2022-12-19T03:19:17.175Z,72.57
2022-12-19T03:24:21.366Z,69.63
2022-12-19T03:29:29.423Z,65.53
2022-12-19T03:34:39.656Z,66.60
2022-12-19T03:39:46.877Z,75.60
2022-12-19T03:44:51.798Z,67.33
2022-12-19T03:49:56.306Z,73.67
2022-12-19T03:55:13.693Z,71.53
2022-12-19T04:00:18.733Z,67.77
2022-12-19T04:05:25.898Z,69.80
2022-12-19T04:10:29.975Z,71.80
2022-12-19T04:15:38.468Z,65.93
2022-12-19T04:20:50.595Z,72.63
2022-12-19T04:25:58.644Z,71.23
2022-12-19T04:31:02.437Z,67.50
2022-12-19T04:36:07.425Z,70.27
2022-12-19T04:41:10.686Z,67.97
2022-12-19T04:46:13.586Z,73.27
2022-12-19T04:51:18.455Z,72.53
2022-12-19T04:56:21.361Z,69.53
2022-12-19T05:01:30.304Z,71.53
2022-12-19T05:06:34.545Z,68.23
2022-12-19T05:11:37.665Z,64.60
2022-12-19T05:16:40.509Z,72.27
2022-12-19T05:21:45.399Z,71.23
2022-12-19T05:26:49.256Z,70.50
2022-12-19T05:31:52.104Z,79.43
2022-12-19T05:36:56.309Z,71.47
2022-12-19T05:41:59.632Z,119.50
2022-12-19T05:47:03.064Z,127.90
2022-12-19T05:52:07.326Z,88.70
2022-12-19T05:57:10.337Z,69.50
2022-12-19T06:02:13.336Z,80.13
2022-12-19T06:07:20.934Z,70.63
2022-12-19T06:12:24.581Z,59.73
2022-12-19T06:17:27.532Z,56.07
2022-12-19T06:22:31.738Z,67.83
2022-12-19T06:27:34.829Z,74.67
2022-12-19T06:32:38.477Z,64.07
2022-12-19T06:37:42.772Z,58.13
2022-12-19T06:42:48.312Z,51.50
2022-12-19T06:47:51.175Z,80.23
2022-12-19T06:52:55.385Z,70.87
2022-12-19T06:57:58.443Z,58.10
2022-12-19T07:03:05.192Z,65.37
2022-12-19T07:08:10.163Z,75.10
2022-12-19T07:13:13.023Z,60.27
2022-12-19T07:18:16.256Z,60.63
2022-12-19T07:23:23.058Z,64.27
2022-12-19T07:28:26.366Z,62.50
2022-12-19T07:33:29.241Z,60.07
2022-12-19T07:38:33.475Z,57.60
2022-12-19T07:43:36.357Z,68.97
2022-12-19T07:48:39.250Z,76.53
2022-12-19T07:53:43.468Z,68.40
2022-12-19T07:58:46.317Z,68.27
2022-12-19T08:03:49.188Z,68.13
2022-12-19T08:08:53.396Z,66.70
2022-12-19T08:13:56.440Z,62.13
2022-12-19T08:19:00.413Z,61.67
2022-12-19T08:24:04.953Z,59.67
2022-12-19T08:29:07.862Z,66.87
2022-12-19T08:34:10.701Z,67.00
2022-12-19T08:39:14.972Z,60.23
2022-12-19T08:44:17.855Z,55.87
2022-12-19T08:49:21.308Z,57.10
2022-12-19T08:54:27.080Z,60.27
2022-12-19T08:59:31.218Z,59.07
2022-12-19T09:05:59.607Z,71.67
2022-12-19T09:10:01.943Z,69.63
2022-12-19T09:15:05.405Z,65.57
2022-12-19T09:20:10.723Z,62.20
2022-12-19T09:25:15.119Z,56.83
2022-12-19T09:30:18.115Z,55.57
2022-12-19T09:35:24.462Z,57.77
2022-12-19T09:40:45.537Z,63.27
2022-12-19T09:45:58.767Z,56.40
2022-12-19T09:51:10.576Z,53.27
2022-12-19T09:56:16.915Z,48.83
2022-12-19T10:01:23.207Z,57.13
2022-12-19T10:07:20.569Z,52.87
2022-12-19T10:12:44.327Z,54.40
2022-12-19T10:17:38.937Z,52.93
2022-12-19T10:22:52.235Z,53.83
2022-12-19T10:28:01.641Z,51.23
2022-12-19T10:33:20.289Z,55.77
2022-12-19T10:38:30.005Z,59.83
2022-12-19T10:43:44.423Z,58.87
2022-12-19T10:48:49.445Z,56.83
2022-12-19T10:53:55.624Z,51.50
2022-12-19T10:59:01.333Z,57.33
2022-12-19T11:04:19.666Z,54.13
2022-12-19T11:09:30.764Z,52.10
2022-12-19T11:18:50.884Z,55.83
2022-12-19T11:29:44.238Z,52.20
2022-12-19T11:30:45.508Z,52.53
2022-12-19T11:36:33.190Z,50.23
2022-12-19T11:41:41.986Z,53.33
2022-12-19T11:46:50.635Z,48.43
2022-12-19T11:51:57.405Z,52.37
2022-12-19T11:57:00.709Z,48.43
2022-12-19T12:02:25.220Z,50.47
2022-12-19T12:08:54.354Z,50.43
2022-12-19T12:22:34.755Z,50.87
2022-12-19T12:31:00.803Z,52.10
2022-12-19T12:31:39.473Z,51.93
2022-12-19T12:31:41.876Z,52.57
2022-12-19T12:37:52.434Z,53.10
2022-12-19T12:41:10.604Z,47.13
2022-12-19T12:46:17.230Z,51.70
2022-12-19T12:51:22.653Z,52.42
2022-12-19T12:56:25.909Z,52.70
2022-12-19T13:01:35.462Z,51.25
2022-12-19T13:06:41.781Z,51.33
2022-12-19T13:12:06.366Z,52.93
2022-12-19T13:17:10.192Z,53.55
2022-12-19T13:22:41.291Z,67.93
2022-12-19T13:27:49.389Z,49.45
2022-12-19T13:33:10.145Z,54.07
2022-12-19T13:39:57.819Z,52.88
2022-12-19T13:43:49.925Z,53.42
2022-12-19T13:48:57.116Z,52.75
2022-12-19T13:54:01.305Z,52.65
2022-12-19T13:59:07.040Z,54.50
2022-12-19T14:04:13.319Z,56.65
2022-12-19T14:11:25.656Z,63.10
2022-12-19T14:15:12.909Z,52.25
2022-12-19T14:22:02.429Z,56.28
2022-12-19T14:28:14.981Z,55.55
2022-12-19T14:31:15.599Z,53.63
2022-12-19T14:36:26.194Z,53.85
2022-12-19T14:42:02.439Z,57.38
2022-12-19T14:54:10.729Z,62.35
2022-12-19T14:54:21.296Z,56.75
2022-12-19T14:58:53.971Z,53.08
2022-12-19T15:04:01.078Z,60.92
2022-12-19T15:10:59.577Z,54.58
2022-12-19T15:14:54.652Z,53.00
2022-12-19T15:20:01.345Z,54.08
2022-12-19T15:25:04.422Z,52.70
2022-12-19T15:30:15.988Z,58.37
2022-12-19T15:35:19.737Z,75.53
2022-12-19T15:40:22.645Z,60.53
2022-12-19T15:45:27.341Z,59.13
2022-12-19T15:50:32.244Z,62.55
2022-12-19T15:55:37.041Z,62.53
2022-12-19T16:00:43.848Z,58.10
2022-12-19T16:05:47.272Z,64.33
2022-12-19T16:11:01.142Z,63.40
2022-12-19T16:16:15.075Z,55.30
2022-12-19T16:21:23.592Z,57.33
2022-12-19T16:26:34.139Z,64.10
2022-12-19T16:31:38.396Z,59.03
2022-12-19T16:36:41.274Z,57.80
2022-12-19T16:41:45.057Z,116.70
2022-12-19T16:46:51.770Z,60.00
2022-12-19T16:51:54.708Z,55.67
2022-12-19T16:56:57.755Z,52.83
2022-12-19T17:02:03.290Z,51.80
2022-12-19T17:07:10.900Z,54.57
2022-12-19T17:12:18.929Z,54.87
2022-12-19T17:17:23.200Z,60.10
2022-12-19T17:22:26.144Z,58.03
2022-12-19T17:27:30.066Z,49.80
2022-12-19T17:32:34.452Z,52.70
2022-12-19T17:37:37.419Z,54.37
2022-12-19T17:42:40.346Z,49.83
2022-12-19T17:47:45.959Z,52.23
2022-12-19T17:52:49.705Z,51.30
2022-12-19T17:57:53.076Z,51.93
2022-12-19T18:02:57.924Z,56.33
2022-12-19T18:08:01.016Z,45.90
2022-12-19T18:13:05.499Z,46.73
2022-12-19T18:18:14.306Z,47.77
2022-12-19T18:23:19.149Z,49.37
2022-12-19T18:28:22.064Z,54.07
2022-12-19T18:33:26.465Z,48.77
2022-12-19T18:38:29.432Z,54.53
2022-12-19T18:43:32.717Z,46.77
2022-12-19T18:48:38.587Z,47.90
2022-12-19T18:53:41.681Z,46.38
2022-12-19T18:58:51.661Z,46.60
2022-12-19T19:03:59.155Z,50.63
2022-12-19T19:09:03.516Z,50.05
2022-12-19T19:14:25.324Z,51.80
2022-12-19T19:19:29.532Z,47.70
2022-12-19T19:24:32.384Z,45.05
2022-12-19T19:29:35.268Z,50.07
2022-12-19T19:34:41.572Z,65.60
2022-12-19T19:39:44.894Z,49.37
2022-12-19T19:44:47.746Z,48.60
2022-12-19T19:49:51.941Z,52.28
2022-12-19T19:54:54.988Z,53.57
2022-12-19T19:59:57.915Z,50.77
2022-12-19T20:05:02.135Z,50.47
2022-12-19T20:10:08.033Z,56.53
2022-12-19T20:15:17.018Z,51.13
2022-12-19T20:20:23.113Z,52.92
2022-12-19T20:25:25.982Z,54.30
2022-12-19T20:30:28.843Z,53.30
2022-12-19T20:35:33.114Z,54.00
2022-12-19T20:40:35.993Z,51.03
2022-12-19T20:45:38.882Z,52.60
2022-12-19T20:50:43.541Z,51.07
2022-12-19T20:55:57.633Z,53.07
2022-12-19T21:01:06.216Z,49.23
2022-12-19T21:06:12.488Z,50.20
2022-12-19T21:11:16.401Z,48.20
2022-12-19T21:16:21.558Z,51.53
2022-12-19T21:21:27.421Z,47.40
2022-12-19T21:26:30.389Z,49.47
2022-12-19T21:31:33.309Z,49.17
2022-12-19T21:36:38.513Z,46.47
2022-12-19T21:41:43.440Z,47.70
2022-12-19T21:46:46.368Z,46.73
2022-12-19T21:51:50.629Z,47.03
2022-12-19T21:56:53.502Z,43.73
2022-12-19T22:01:56.548Z,43.20
2022-12-19T22:07:00.813Z,45.53
2022-12-19T22:12:03.664Z,46.57
2022-12-19T22:17:06.532Z,45.37
2022-12-19T22:22:10.753Z,45.40
2022-12-19T22:27:13.608Z,56.13
2022-12-19T22:32:17.586Z,48.97
2022-12-19T22:37:21.878Z,44.93
2022-12-19T22:42:24.795Z,46.57
2022-12-19T22:47:27.679Z,48.77
2022-12-19T22:52:31.893Z,49.60
2022-12-19T22:57:35.025Z,55.23
2022-12-19T23:02:39.990Z,49.13
2022-12-19T23:07:45.311Z,44.92
2022-12-19T23:12:48.200Z,48.47
2022-12-19T23:17:51.093Z,47.67
2022-12-19T23:22:55.322Z,46.80
2022-12-19T23:27:58.559Z,42.77
2022-12-19T23:33:01.768Z,43.17
2022-12-19T23:38:05.980Z,42.57
2022-12-19T23:43:08.836Z,39.92
2022-12-19T23:48:11.699Z,43.83
2022-12-19T23:53:15.908Z,46.88
2022-12-19T23:58:24.155Z,46.00
